Central Park, Washington
Current Conditions -  °F | °C
As of 12:14 PM on Friday 19 Dec 2014 (Local Time) from KHQM Reporting Station
Overcast Overcast  
Wind Chill: 50°   Ceiling: 4200
Heat Index: 50°   Visibility: 7mi
Dew Point: 46°   Wind: 8mph
Humidity: 86%   Direction: 130°SE
Pressure: 29.92"   Gusts: NA
Location:  47.1445°N, 123.771°W
Report Text: KHQM 192014Z AUTO 13007KT 7SM FEW024 BKN042 OVC065 10/08 A2992 RMK AO2 RAE13 P0002 T01000078
Loading
Personal Weather Stations






























Interactive Weather Map New forecast layout! Learn more

10-Day Weather Forecast

Advertisements
Track Severe Weather on mobile